sensor_id;sensor_type;location;lat;lon;timestamp;pressure;altitude;pressure_sealevel;temperature;humidity
30338;BME280;17143;51.888;5.408;2023-04-04T00:14:37;102871.53;;;3.98;74.60
30338;BME280;17143;51.888;5.408;2023-04-04T00:29:39;102864.09;;;3.79;75.29
30338;BME280;17143;51.888;5.408;2023-04-04T00:44:42;102851.91;;;3.62;75.18
30338;BME280;17143;51.888;5.408;2023-04-04T00:59:44;102838.78;;;3.45;76.01
30338;BME280;17143;51.888;5.408;2023-04-04T01:14:46;102849.56;;;3.27;76.53
30338;BME280;17143;51.888;5.408;2023-04-04T01:29:49;102837.50;;;3.12;77.10
30338;BME280;17143;51.888;5.408;2023-04-04T01:44:55;102834.81;;;2.96;78.10
30338;BME280;17143;51.888;5.408;2023-04-04T01:59:58;102846.09;;;2.82;78.56
30338;BME280;17143;51.888;5.408;2023-04-04T02:15:00;102846.13;;;2.68;79.82
30338;BME280;17143;51.888;5.408;2023-04-04T02:30:03;102850.41;;;2.54;79.74
30338;BME280;17143;51.888;5.408;2023-04-04T02:45:06;102842.34;;;2.43;80.97
30338;BME280;17143;51.888;5.408;2023-04-04T03:00:10;102830.03;;;2.34;82.05
30338;BME280;17143;51.888;5.408;2023-04-04T03:15:12;102823.63;;;2.23;82.14
30338;BME280;17143;51.888;5.408;2023-04-04T03:30:15;102823.84;;;2.11;82.94
30338;BME280;17143;51.888;5.408;2023-04-04T03:45:17;102816.50;;;2.00;83.35
30338;BME280;17143;51.888;5.408;2023-04-04T04:00:19;102806.25;;;1.93;83.85
30338;BME280;17143;51.888;5.408;2023-04-04T04:15:21;102804.22;;;1.83;84.55
30338;BME280;17143;51.888;5.408;2023-04-04T04:30:24;102820.03;;;1.72;84.92
30338;BME280;17143;51.888;5.408;2023-04-04T04:45:26;102817.97;;;1.62;85.69
30338;BME280;17143;51.888;5.408;2023-04-04T05:00:39;102826.78;;;1.50;86.79
30338;BME280;17143;51.888;5.408;2023-04-04T05:15:42;102842.53;;;1.39;86.54
30338;BME280;17143;51.888;5.408;2023-04-04T05:30:47;102832.09;;;1.45;87.43
30338;BME280;17143;51.888;5.408;2023-04-04T05:45:53;102835.94;;;1.55;88.64
30338;BME280;17143;51.888;5.408;2023-04-04T06:00:56;102847.53;;;1.73;88.77
30338;BME280;17143;51.888;5.408;2023-04-04T06:15:59;102846.44;;;2.13;89.23
30338;BME280;17143;51.888;5.408;2023-04-04T06:31:04;102824.41;;;8.74;71.53
30338;BME280;17143;51.888;5.408;2023-04-04T06:46:08;102831.56;;;8.95;60.03
30338;BME280;17143;51.888;5.408;2023-04-04T07:01:10;102842.44;;;10.74;55.74
30338;BME280;17143;51.888;5.408;2023-04-04T07:16:12;102867.16;;;12.35;47.58
30338;BME280;17143;51.888;5.408;2023-04-04T07:31:14;102861.66;;;12.20;47.60
30338;BME280;17143;51.888;5.408;2023-04-04T07:46:16;102862.19;;;14.09;44.50
30338;BME280;17143;51.888;5.408;2023-04-04T08:01:18;102840.81;;;15.01;41.58
30338;BME280;17143;51.888;5.408;2023-04-04T08:16:20;102836.59;;;14.90;39.80
30338;BME280;17143;51.888;5.408;2023-04-04T08:31:22;102834.09;;;14.80;36.84
30338;BME280;17143;51.888;5.408;2023-04-04T08:46:25;102844.94;;;14.60;35.06
30338;BME280;17143;51.888;5.408;2023-04-04T09:01:27;102831.47;;;15.31;34.79
30338;BME280;17143;51.888;5.408;2023-04-04T09:16:30;102840.25;;;15.18;34.87
30338;BME280;17143;51.888;5.408;2023-04-04T09:31:33;102828.69;;;14.77;34.82
30338;BME280;17143;51.888;5.408;2023-04-04T09:46:35;102824.31;;;14.17;36.51
30338;BME280;17143;51.888;5.408;2023-04-04T10:01:37;102826.66;;;14.00;36.25
30338;BME280;17143;51.888;5.408;2023-04-04T10:16:44;102806.72;;;14.39;36.79
30338;BME280;17143;51.888;5.408;2023-04-04T10:31:49;102800.44;;;14.99;36.69
30338;BME280;17143;51.888;5.408;2023-04-04T10:46:56;102796.19;;;15.01;36.85
30338;BME280;17143;51.888;5.408;2023-04-04T11:02:01;102768.38;;;15.16;35.67
30338;BME280;17143;51.888;5.408;2023-04-04T11:17:05;102758.66;;;14.27;37.39
30338;BME280;17143;51.888;5.408;2023-04-04T11:32:26;102756.38;;;14.20;37.81
30338;BME280;17143;51.888;5.408;2023-04-04T11:47:28;102729.69;;;14.37;37.34
30338;BME280;17143;51.888;5.408;2023-04-04T12:02:31;102715.78;;;14.26;38.51
30338;BME280;17143;51.888;5.408;2023-04-04T12:17:33;102715.66;;;13.87;37.65
30338;BME280;17143;51.888;5.408;2023-04-04T12:32:39;102689.75;;;14.41;38.50
30338;BME280;17143;51.888;5.408;2023-04-04T12:47:51;102671.00;;;14.48;37.49
30338;BME280;17143;51.888;5.408;2023-04-04T13:02:54;102658.91;;;14.76;38.31
30338;BME280;17143;51.888;5.408;2023-04-04T13:17:56;102630.91;;;15.29;36.91
30338;BME280;17143;51.888;5.408;2023-04-04T13:32:58;102608.75;;;15.39;37.51
30338;BME280;17143;51.888;5.408;2023-04-04T13:48:01;102577.72;;;15.74;37.43
30338;BME280;17143;51.888;5.408;2023-04-04T14:03:03;102563.06;;;15.22;37.04
30338;BME280;17143;51.888;5.408;2023-04-04T14:18:05;102547.53;;;15.40;38.31
30338;BME280;17143;51.888;5.408;2023-04-04T14:33:07;102537.09;;;15.27;36.84
30338;BME280;17143;51.888;5.408;2023-04-04T14:48:09;102518.69;;;15.27;38.70
30338;BME280;17143;51.888;5.408;2023-04-04T15:03:11;102495.19;;;15.00;39.08
30338;BME280;17143;51.888;5.408;2023-04-04T15:18:13;102486.63;;;15.17;39.49
30338;BME280;17143;51.888;5.408;2023-04-04T15:33:15;102485.53;;;15.14;40.07
30338;BME280;17143;51.888;5.408;2023-04-04T15:48:17;102463.03;;;15.04;39.92
30338;BME280;17143;51.888;5.408;2023-04-04T16:03:19;102446.88;;;14.84;40.06
30338;BME280;17143;51.888;5.408;2023-04-04T16:18:21;102432.69;;;14.67;41.62
30338;BME280;17143;51.888;5.408;2023-04-04T16:33:23;102420.69;;;14.03;37.60
30338;BME280;17143;51.888;5.408;2023-04-04T16:48:25;102413.22;;;13.70;37.07
30338;BME280;17143;51.888;5.408;2023-04-04T17:03:27;102415.00;;;13.58;39.01
30338;BME280;17143;51.888;5.408;2023-04-04T17:18:29;102407.38;;;13.10;41.31
30338;BME280;17143;51.888;5.408;2023-04-04T17:33:31;102402.91;;;12.60;42.40
30338;BME280;17143;51.888;5.408;2023-04-04T17:48:33;102410.41;;;12.19;44.15
30338;BME280;17143;51.888;5.408;2023-04-04T18:03:35;102404.19;;;11.71;47.31
30338;BME280;17143;51.888;5.408;2023-04-04T18:18:37;102394.81;;;11.39;49.56
30338;BME280;17143;51.888;5.408;2023-04-04T18:33:39;102403.72;;;11.08;51.29
30338;BME280;17143;51.888;5.408;2023-04-04T18:48:41;102416.97;;;10.78;53.68
30338;BME280;17143;51.888;5.408;2023-04-04T19:03:43;102441.56;;;10.48;54.91
30338;BME280;17143;51.888;5.408;2023-04-04T19:18:46;102432.72;;;10.14;56.55
30338;BME280;17143;51.888;5.408;2023-04-04T19:33:49;102454.66;;;9.86;58.96
30338;BME280;17143;51.888;5.408;2023-04-04T19:48:52;102456.03;;;9.61;60.62
30338;BME280;17143;51.888;5.408;2023-04-04T20:03:54;102449.28;;;9.23;63.49
30338;BME280;17143;51.888;5.408;2023-04-04T20:18:58;102433.69;;;9.02;65.63
30338;BME280;17143;51.888;5.408;2023-04-04T20:34:00;102432.59;;;8.90;66.27
30338;BME280;17143;51.888;5.408;2023-04-04T20:49:03;102419.22;;;8.86;68.08
30338;BME280;17143;51.888;5.408;2023-04-04T21:04:05;102425.28;;;8.66;69.79
30338;BME280;17143;51.888;5.408;2023-04-04T21:19:21;102427.22;;;8.48;69.92
30338;BME280;17143;51.888;5.408;2023-04-04T21:34:25;102422.00;;;8.38;71.46
30338;BME280;17143;51.888;5.408;2023-04-04T21:49:28;102407.50;;;8.22;70.95
30338;BME280;17143;51.888;5.408;2023-04-04T22:04:30;102402.59;;;7.96;71.88
30338;BME280;17143;51.888;5.408;2023-04-04T22:19:32;102384.19;;;7.74;72.41
30338;BME280;17143;51.888;5.408;2023-04-04T22:34:35;102368.53;;;7.54;73.48
30338;BME280;17143;51.888;5.408;2023-04-04T22:49:37;102365.28;;;7.28;74.06
30338;BME280;17143;51.888;5.408;2023-04-04T23:04:39;102365.63;;;7.04;74.80
30338;BME280;17143;51.888;5.408;2023-04-04T23:19:41;102371.69;;;6.86;75.86
30338;BME280;17143;51.888;5.408;2023-04-04T23:34:43;102351.31;;;6.53;76.83
30338;BME280;17143;51.888;5.408;2023-04-04T23:49:44;102337.44;;;6.25;78.70
